Time;durP1;ratioP1;P1;durP2;ratioP2;P2;SDS_P1;SDS_P2;PMS_P1;PMS_P2;Temp;Humidity;BMP_temperature;BMP_pressure;BME280_temperature;BME280_humidity;BME280_pressure;Samples;Min_cycle;Max_cycle;Signal;HPM_P1;HPM_P2
2022/09/19 00:01:39;;;;;;;2.10;1.43;;;9.30;99.90;;;;;;5035226;28;20433;-74
2022/09/19 00:04:20;;;;;;;3.07;1.23;;;9.30;99.90;;;;;;5035074;28;20414;-74
2022/09/19 00:06:47;;;;;;;4.23;1.20;;;9.30;99.90;;;;;;5035375;28;20426;-74
2022/09/19 00:09:16;;;;;;;3.53;2.03;;;9.30;99.90;;;;;;5034980;28;20472;-74
2022/09/19 00:11:44;;;;;;;2.37;1.60;;;9.30;99.90;;;;;;5034984;28;20456;-73
2022/09/19 00:14:14;;;;;;;5.50;1.90;;;9.40;99.90;;;;;;5034836;28;20399;-73
2022/09/19 00:16:41;;;;;;;2.03;1.30;;;9.40;99.90;;;;;;5034847;28;20433;-72
2022/09/19 00:19:10;;;;;;;9.63;1.10;;;9.40;99.90;;;;;;5034456;28;20399;-73
2022/09/19 00:21:38;;;;;;;3.10;1.67;;;9.30;99.90;;;;;;5034036;28;20501;-73
2022/09/19 00:26:50;;;;;;;5.03;1.63;;;9.40;99.90;;;;;;5035023;28;20985;-74
2022/09/19 00:29:17;;;;;;;11.17;1.77;;;9.50;99.90;;;;;;5034742;28;20398;-74
2022/09/19 00:31:44;;;;;;;5.63;1.87;;;9.50;99.90;;;;;;5034466;28;20456;-74
2022/09/19 00:34:11;;;;;;;3.63;1.47;;;9.60;99.90;;;;;;5033236;28;20406;-74
2022/09/19 00:36:38;;;;;;;2.53;1.30;;;9.60;99.90;;;;;;5034329;28;20432;-74
2022/09/19 00:39:05;;;;;;;3.53;1.33;;;9.60;99.90;;;;;;5034590;28;20782;-74
2022/09/19 00:41:30;;;;;;;2.07;1.40;;;9.60;99.90;;;;;;5034463;28;20498;-74
2022/09/19 00:43:59;;;;;;;3.57;1.63;;;9.60;99.90;;;;;;5034377;28;20497;-74
2022/09/19 00:46:27;;;;;;;4.70;1.50;;;9.60;99.90;;;;;;5034305;28;20589;-74
2022/09/19 00:49:02;;;;;;;5.43;1.30;;;9.60;99.90;;;;;;5034358;28;20997;-74
2022/09/19 00:51:33;;;;;;;6.83;1.33;;;9.60;99.90;;;;;;5034180;28;20787;-74
2022/09/19 00:54:04;;;;;;;21.70;4.30;;;9.60;99.90;;;;;;5034145;28;20929;-74
2022/09/19 00:56:31;;;;;;;5.60;1.87;;;9.60;99.90;;;;;;5033878;28;20964;-74
2022/09/19 00:58:59;;;;;;;9.93;1.60;;;9.60;99.90;;;;;;5034118;28;20403;-73
2022/09/19 01:01:24;;;;;;;3.27;1.10;;;9.60;99.90;;;;;;5034134;28;20411;-73
2022/09/19 01:03:52;;;;;;;3.40;2.50;;;9.60;99.90;;;;;;5034127;28;20491;-73
2022/09/19 01:06:36;;;;;;;1.87;1.30;;;9.60;99.90;;;;;;5033622;28;20672;-72
2022/09/19 01:09:36;;;;;;;10.17;1.97;;;9.60;99.90;;;;;;5033924;28;20426;-73
2022/09/19 01:12:26;;;;;;;2.50;1.73;;;9.60;99.90;;;;;;5033848;28;20453;-74
2022/09/19 01:15:10;;;;;;;4.50;2.17;;;9.60;99.90;;;;;;5033427;28;20418;-73
2022/09/19 01:17:46;;;;;;;7.87;2.07;;;9.70;99.90;;;;;;5033801;28;20399;-74
2022/09/19 01:20:23;;;;;;;5.80;1.40;;;9.70;99.90;;;;;;5033670;28;20489;-74
2022/09/19 01:22:49;;;;;;;6.50;2.37;;;9.70;99.90;;;;;;5033665;28;20402;-74
2022/09/19 01:25:43;;;;;;;10.60;1.60;;;9.80;99.90;;;;;;5033579;28;20797;-74
2022/09/19 01:28:49;;;;;;;7.00;1.33;;;9.80;99.90;;;;;;5033607;28;20640;-74
2022/09/19 01:31:22;;;;;;;2.43;1.20;;;9.70;99.90;;;;;;5048543;28;20414;-74
2022/09/19 01:34:09;;;;;;;5.70;1.67;;;9.70;99.90;;;;;;5048811;28;20411;-74
2022/09/19 01:36:46;;;;;;;3.57;1.50;;;9.70;99.90;;;;;;5033199;28;20430;-74
2022/09/19 01:39:19;;;;;;;4.33;1.40;;;9.60;99.90;;;;;;5033370;28;20402;-74
2022/09/19 01:41:53;;;;;;;9.53;2.00;;;9.60;99.90;;;;;;5033252;28;20876;-74
2022/09/19 01:44:22;;;;;;;5.87;1.73;;;9.60;99.90;;;;;;5032974;28;20406;-74
2022/09/19 01:47:25;;;;;;;7.63;1.80;;;9.60;99.90;;;;;;5031994;28;20449;-74
2022/09/19 01:50:13;;;;;;;1.90;1.20;;;9.60;99.90;;;;;;5033086;28;20755;-75
2022/09/19 01:53:01;;;;;;;3.30;1.50;;;9.50;99.90;;;;;;5033263;28;20442;-73
2022/09/19 01:55:40;;;;;;;4.73;1.73;;;9.50;99.90;;;;;;5032669;28;20938;-73
2022/09/19 01:58:33;;;;;;;3.77;1.30;;;9.50;99.90;;;;;;5033139;28;20395;-74
2022/09/19 02:01:07;;;;;;;4.13;1.40;;;9.50;99.90;;;;;;5032901;28;20438;-73
2022/09/19 02:03:49;;;;;;;6.00;1.37;;;9.50;99.90;;;;;;5032819;28;20425;-73
2022/09/19 02:06:35;;;;;;;2.90;1.50;;;9.40;99.90;;;;;;5032516;28;20414;-74
2022/09/19 02:09:03;;;;;;;3.60;1.03;;;9.40;99.90;;;;;;5032912;28;20497;-73
2022/09/19 02:11:29;;;;;;;6.10;1.47;;;9.40;99.90;;;;;;5032620;28;20438;-74
2022/09/19 02:14:07;;;;;;;2.40;1.00;;;9.30;99.90;;;;;;5032745;28;20401;-73
2022/09/19 02:16:51;;;;;;;3.77;1.30;;;9.30;99.90;;;;;;5032391;28;20418;-74
2022/09/19 02:19:35;;;;;;;2.60;1.60;;;9.30;99.90;;;;;;5032837;28;20805;-74
2022/09/19 02:22:05;;;;;;;8.80;1.57;;;9.30;99.90;;;;;;5032575;28;20840;-74
2022/09/19 02:24:34;;;;;;;5.20;1.70;;;9.30;99.90;;;;;;5032439;28;20406;-73
2022/09/19 02:27:07;;;;;;;5.70;1.50;;;9.30;99.90;;;;;;5032508;28;20854;-73
2022/09/19 02:29:35;;;;;;;4.53;1.70;;;9.30;99.90;;;;;;5032633;28;20800;-73
2022/09/19 02:32:02;;;;;;;2.47;1.43;;;9.30;99.90;;;;;;5032586;28;20931;-72
2022/09/19 02:34:28;;;;;;;6.87;1.67;;;9.30;99.90;;;;;;5031948;28;21025;-73
2022/09/19 02:37:05;;;;;;;8.20;1.53;;;9.40;99.90;;;;;;5032401;28;20458;-72
2022/09/19 02:39:38;;;;;;;3.00;1.50;;;9.40;99.90;;;;;;5032340;28;20401;-73
2022/09/19 02:42:17;;;;;;;2.30;1.10;;;9.40;99.90;;;;;;5032365;28;20406;-73
2022/09/19 02:44:56;;;;;;;3.73;1.73;;;9.50;99.90;;;;;;5031569;28;20398;-73
2022/09/19 02:47:37;;;;;;;4.80;1.73;;;9.50;99.90;;;;;;5032127;28;20409;-73
2022/09/19 02:50:16;;;;;;;2.50;1.53;;;9.50;99.90;;;;;;5032277;28;20437;-73
2022/09/19 02:52:44;;;;;;;4.57;2.23;;;9.60;99.90;;;;;;5032094;28;20898;-73
2022/09/19 02:55:15;;;;;;;4.60;1.30;;;9.60;99.90;;;;;;5031728;28;20437;-74
2022/09/19 02:57:48;;;;;;;4.17;1.43;;;9.60;99.90;;;;;;5032176;28;20410;-74
2022/09/19 03:00:15;;;;;;;2.97;1.23;;;9.60;99.90;;;;;;5032096;28;20857;-73
2022/09/19 03:02:48;;;;;;;7.40;3.30;;;9.60;99.90;;;;;;5031864;28;20445;-73
2022/09/19 03:05:19;;;;;;;4.40;1.50;;;9.60;99.90;;;;;;5031655;28;20483;-73
2022/09/19 03:08:08;;;;;;;1.50;1.17;;;9.50;99.90;;;;;;5032053;28;20394;-73
2022/09/19 03:10:37;;;;;;;4.87;1.73;;;9.50;99.90;;;;;;5031943;28;20468;-73
2022/09/19 03:13:07;;;;;;;7.60;1.60;;;9.50;99.90;;;;;;5030854;28;20490;-73
2022/09/19 03:15:47;;;;;;;3.33;1.87;;;9.50;99.90;;;;;;5031568;28;20418;-73
2022/09/19 03:18:16;;;;;;;4.63;1.07;;;9.40;99.90;;;;;;5030538;28;20748;-73
2022/09/19 03:20:54;;;;;;;8.10;1.37;;;9.40;99.90;;;;;;5031838;28;20494;-74
2022/09/19 03:23:23;;;;;;;3.33;1.17;;;9.40;99.90;;;;;;5031805;28;20406;-74
2022/09/19 03:25:50;;;;;;;6.13;1.30;;;9.30;99.90;;;;;;5031590;28;20938;-74
2022/09/19 03:28:19;;;;;;;1.63;1.13;;;9.30;99.90;;;;;;5031877;28;20429;-74
2022/09/19 03:30:45;;;;;;;5.33;1.23;;;9.30;99.90;;;;;;5031659;28;20945;-73
2022/09/19 03:33:15;;;;;;;10.47;1.37;;;9.30;99.90;;;;;;5031725;28;20454;-73
2022/09/19 03:35:42;;;;;;;2.40;1.27;;;9.30;99.90;;;;;;5031509;28;21008;-73
2022/09/19 03:38:08;;;;;;;8.43;1.67;;;9.30;99.90;;;;;;5031694;28;20550;-73
2022/09/19 03:40:34;;;;;;;7.50;2.17;;;9.30;99.90;;;;;;5046924;28;20414;-74
2022/09/19 03:43:00;;;;;;;3.83;1.30;;;9.40;99.90;;;;;;5031632;28;20410;-74
2022/09/19 03:45:25;;;;;;;6.00;2.30;;;9.40;99.90;;;;;;5031271;28;20426;-74
2022/09/19 03:47:51;;;;;;;3.93;1.20;;;9.40;99.90;;;;;;5031642;28;20172;-74
2022/09/19 03:50:17;;;;;;;4.60;1.73;;;9.50;99.90;;;;;;5046891;28;20182;-72
2022/09/19 03:52:47;;;;;;;6.50;1.70;;;9.50;99.90;;;;;;5046818;28;20552;-75
2022/09/19 03:55:13;;;;;;;6.90;1.43;;;9.50;99.90;;;;;;5033556;28;20245;-74
2022/09/19 03:57:38;;;;;;;6.53;2.10;;;9.50;99.90;;;;;;5035236;28;20406;-73
2022/09/19 04:00:04;;;;;;;12.30;2.07;;;9.50;99.90;;;;;;5035037;28;20414;-73
2022/09/19 04:02:30;;;;;;;3.17;1.70;;;9.50;99.90;;;;;;5035087;28;20179;-75
2022/09/19 04:04:56;;;;;;;5.83;1.30;;;9.50;99.90;;;;;;5034803;28;20798;-72
2022/09/19 04:07:21;;;;;;;4.97;1.47;;;9.60;99.90;;;;;;5035149;28;20645;-73
2022/09/19 04:09:47;;;;;;;4.27;1.70;;;9.60;99.90;;;;;;5035091;28;20178;-73
2022/09/19 04:12:13;;;;;;;2.87;1.73;;;9.60;99.90;;;;;;5034901;28;20188;-73
2022/09/19 04:14:39;;;;;;;10.80;1.57;;;9.60;99.90;;;;;;5034638;28;20171;-74
2022/09/19 04:17:07;;;;;;;7.03;3.47;;;9.60;99.90;;;;;;5034954;28;20766;-74
2022/09/19 04:19:32;;;;;;;2.23;1.60;;;9.60;99.90;;;;;;5034903;28;20395;-74
2022/09/19 04:21:59;;;;;;;3.97;1.70;;;9.70;99.90;;;;;;5034858;28;20549;-74
2022/09/19 04:24:25;;;;;;;4.93;1.60;;;9.70;99.90;;;;;;5034640;28;20163;-74
2022/09/19 04:26:51;;;;;;;4.50;1.83;;;9.80;99.90;;;;;;5035168;28;20484;-74
2022/09/19 04:29:19;;;;;;;3.20;1.47;;;9.80;99.90;;;;;;5034770;28;20406;-74
2022/09/19 04:31:44;;;;;;;4.97;1.53;;;9.80;99.90;;;;;;5034635;28;20242;-74
2022/09/19 04:34:14;;;;;;;5.43;1.60;;;9.80;99.90;;;;;;5034725;28;20402;-74
2022/09/19 04:36:43;;;;;;;3.43;1.00;;;9.90;99.90;;;;;;5034503;28;20258;-75
2022/09/19 04:39:09;;;;;;;5.13;1.50;;;9.80;99.90;;;;;;5034616;28;20402;-75
2022/09/19 04:41:36;;;;;;;12.80;2.40;;;9.80;99.90;;;;;;5034438;28;20402;-73
2022/09/19 04:44:04;;;;;;;2.10;1.33;;;9.80;99.90;;;;;;5033251;28;20783;-73
2022/09/19 04:46:32;;;;;;;4.17;1.33;;;9.80;99.90;;;;;;5034127;28;20985;-74
2022/09/19 04:48:59;;;;;;;4.70;1.60;;;9.80;99.90;;;;;;5033298;28;20413;-71
2022/09/19 04:51:27;;;;;;;5.53;1.77;;;9.80;99.90;;;;;;5034183;28;20410;-72
2022/09/19 04:53:53;;;;;;;4.90;1.70;;;9.70;99.90;;;;;;5034282;28;20402;-73
2022/09/19 04:56:20;;;;;;;4.97;1.67;;;9.70;99.90;;;;;;5033793;28;20782;-73
2022/09/19 04:58:46;;;;;;;5.17;1.50;;;9.70;99.90;;;;;;5034255;28;20449;-74
2022/09/19 05:01:13;;;;;;;4.10;1.13;;;9.80;99.90;;;;;;5034119;28;20442;-73
2022/09/19 05:03:43;;;;;;;4.40;1.60;;;9.80;99.90;;;;;;5034138;28;20430;-73
2022/09/19 05:06:12;;;;;;;4.37;2.33;;;9.80;99.90;;;;;;5033498;28;20969;-73
2022/09/19 05:08:38;;;;;;;8.63;2.10;;;9.90;99.90;;;;;;5033989;28;20403;-73
2022/09/19 05:11:06;;;;;;;6.43;3.50;;;10.00;99.90;;;;;;5034084;28;20415;-74
2022/09/19 05:13:33;;;;;;;10.70;1.77;;;10.00;99.90;;;;;;5034006;28;20449;-74
2022/09/19 05:16:00;;;;;;;2.43;1.47;;;10.10;99.90;;;;;;5033490;28;20430;-74
2022/09/19 05:18:27;;;;;;;8.20;1.37;;;10.20;99.90;;;;;;5033926;28;20406;-74
2022/09/19 05:20:54;;;;;;;6.13;1.13;;;10.20;99.90;;;;;;5033951;28;20874;-74
2022/09/19 05:23:22;;;;;;;5.47;2.40;;;10.30;99.90;;;;;;5033684;28;20409;-74
2022/09/19 05:25:47;;;;;;;6.07;1.53;;;10.30;99.90;;;;;;5033381;28;20445;-75
2022/09/19 05:28:13;;;;;;;4.30;1.70;;;10.40;99.90;;;;;;5033685;28;20413;-74
2022/09/19 05:30:46;;;;;;;3.20;1.93;;;10.40;99.90;;;;;;5033592;28;20168;-75
2022/09/19 05:33:11;;;;;;;5.13;2.10;;;10.50;99.90;;;;;;5033499;28;20496;-73
2022/09/19 05:35:37;;;;;;;4.30;1.30;;;10.50;99.90;;;;;;5033074;28;20429;-75
2022/09/19 05:38:03;;;;;;;4.70;1.37;;;10.50;99.90;;;;;;5033449;28;20168;-75
2022/09/19 05:40:29;;;;;;;5.83;1.53;;;10.60;99.90;;;;;;5033474;28;20555;-74
2022/09/19 05:42:59;;;;;;;1.53;1.40;;;10.60;99.90;;;;;;5033221;28;20407;-74
2022/09/19 05:45:25;;;;;;;3.10;1.60;;;10.60;99.90;;;;;;5033061;28;20686;-74
2022/09/19 05:47:51;;;;;;;7.33;2.10;;;10.70;99.90;;;;;;5032182;28;20421;-74
2022/09/19 05:50:16;;;;;;;3.80;1.07;;;10.70;99.90;;;;;;5033145;28;20417;-73
2022/09/19 05:55:28;;;;;;;2.17;1.20;;;10.90;99.90;;;;;;5032811;28;20275;-74
2022/09/19 05:57:55;;;;;;;3.70;1.80;;;10.90;99.90;;;;;;5033065;28;20763;-74
2022/09/19 06:00:23;;;;;;;3.30;1.40;;;11.00;99.90;;;;;;5032947;28;20402;-77
2022/09/19 06:03:02;;;;;;;8.93;1.40;;;11.10;99.90;;;;;;5033135;28;20477;-73
2022/09/19 06:05:33;;;;;;;3.60;1.30;;;11.20;99.90;;;;;;5032408;28;20426;-73
2022/09/19 06:07:59;;;;;;;6.50;1.60;;;11.20;99.90;;;;;;5032690;28;20561;-73
2022/09/19 06:10:26;;;;;;;4.00;1.90;;;11.30;99.90;;;;;;5032671;28;20406;-74
2022/09/19 06:12:54;;;;;;;4.53;1.50;;;11.40;99.90;;;;;;5032702;28;20482;-73
2022/09/19 06:15:20;;;;;;;7.70;1.37;;;11.40;99.90;;;;;;5032355;28;20764;-73
2022/09/19 06:17:49;;;;;;;3.27;1.67;;;11.50;99.90;;;;;;5031889;28;20399;-73
2022/09/19 06:20:15;;;;;;;3.53;1.90;;;11.50;99.90;;;;;;5032752;28;20640;-76
2022/09/19 06:22:41;;;;;;;1.60;1.40;;;11.60;99.90;;;;;;5032764;28;20540;-72
2022/09/19 06:25:07;;;;;;;4.77;1.53;;;11.70;99.90;;;;;;5032260;28;20529;-74
2022/09/19 06:27:33;;;;;;;3.00;1.27;;;11.80;99.90;;;;;;5031290;28;20402;-74
2022/09/19 06:29:58;;;;;;;6.23;1.50;;;11.90;99.90;;;;;;5032392;28;20433;-74
2022/09/19 06:32:24;;;;;;;5.37;1.37;;;11.90;99.90;;;;;;5031257;28;20206;-74
2022/09/19 06:34:50;;;;;;;2.10;1.73;;;12.00;99.90;;;;;;5032014;28;20188;-75
2022/09/19 06:37:16;;;;;;;3.10;1.70;;;12.00;99.90;;;;;;5032434;28;21006;-75
2022/09/19 06:39:41;;;;;;;6.37;3.13;;;12.10;99.90;;;;;;5032528;28;20160;-74
2022/09/19 06:42:07;;;;;;;2.77;1.07;;;12.20;99.90;;;;;;5032239;28;20406;-74
2022/09/19 06:44:33;;;;;;;3.27;1.03;;;12.30;99.90;;;;;;5031913;28;20167;-75
2022/09/19 06:46:59;;;;;;;6.03;1.23;;;12.50;99.90;;;;;;5032392;28;20168;-74
2022/09/19 06:49:27;;;;;;;5.63;1.63;;;12.60;99.90;;;;;;5032204;28;20174;-74
2022/09/19 06:51:54;;;;;;;4.83;2.50;;;12.70;99.90;;;;;;5032114;28;20506;-74
2022/09/19 06:54:22;;;;;;;8.10;1.67;;;12.80;99.90;;;;;;5032026;28;20995;-74
2022/09/19 06:56:48;;;;;;;7.50;1.23;;;12.80;99.90;;;;;;5031942;28;20437;-74
2022/09/19 06:59:14;;;;;;;4.50;1.50;;;12.90;99.90;;;;;;5030834;28;20405;-74
2022/09/19 07:01:39;;;;;;;16.13;1.60;;;13.00;99.90;;;;;;5031920;28;20410;-74
2022/09/19 07:04:05;;;;;;;23.50;2.07;;;13.00;99.90;;;;;;5032110;28;20186;-74
2022/09/19 07:06:34;;;;;;;2.50;1.50;;;13.00;99.90;;;;;;5031683;28;20187;-74
2022/09/19 07:09:02;;;;;;;2.10;1.13;;;13.00;99.90;;;;;;5031966;28;20164;-73
2022/09/19 07:11:28;;;;;;;3.20;1.23;;;13.10;99.90;;;;;;5031817;28;20413;-75
2022/09/19 07:13:53;;;;;;;5.40;1.50;;;13.10;99.90;;;;;;5031857;28;20402;-75
2022/09/19 07:16:19;;;;;;;4.70;1.17;;;13.20;99.90;;;;;;5031988;28;20437;-75
2022/09/19 07:18:44;;;;;;;5.23;1.57;;;13.30;99.90;;;;;;5032070;28;20163;-75
2022/09/19 07:21:10;;;;;;;6.90;1.53;;;13.40;99.90;;;;;;5031870;28;20217;-74
2022/09/19 07:23:36;;;;;;;10.73;1.90;;;13.40;99.90;;;;;;5030599;28;20653;-74
2022/09/19 07:26:02;;;;;;;8.13;1.70;;;13.50;99.90;;;;;;5031409;28;20613;-74
2022/09/19 07:28:27;;;;;;;2.73;1.07;;;13.50;99.90;;;;;;5031862;28;20410;-74
2022/09/19 07:30:54;;;;;;;2.53;1.37;;;13.50;99.90;;;;;;5035321;28;20206;-73
2022/09/19 07:33:20;;;;;;;10.93;1.37;;;13.50;99.90;;;;;;5034404;28;20295;-74
2022/09/19 07:35:47;;;;;;;2.53;1.10;;;13.50;99.90;;;;;;5034263;28;20799;-74
2022/09/19 07:38:17;;;;;;;3.90;1.30;;;13.50;99.90;;;;;;5034683;28;20413;-74
2022/09/19 07:40:43;;;;;;;2.40;1.30;;;13.60;99.90;;;;;;5035668;28;20818;-75
2022/09/19 07:43:13;;;;;;;7.20;1.70;;;13.70;99.90;;;;;;5034215;28;20466;-74
2022/09/19 07:45:43;;;;;;;5.07;1.10;;;13.80;99.90;;;;;;5035165;28;20513;-73
2022/09/19 07:48:10;;;;;;;3.10;1.37;;;13.90;99.90;;;;;;5035609;28;20402;-73
2022/09/19 07:50:36;;;;;;;1.40;0.90;;;13.90;99.90;;;;;;5035333;28;20402;-73
2022/09/19 07:53:07;;;;;;;3.53;1.50;;;13.90;99.90;;;;;;5035322;28;20472;-73
2022/09/19 07:55:35;;;;;;;2.67;1.10;;;14.00;99.90;;;;;;5034973;28;20430;-74
2022/09/19 07:58:03;;;;;;;6.53;1.57;;;14.10;99.90;;;;;;5050876;28;20501;-73
2022/09/19 08:00:30;;;;;;;5.90;2.07;;;14.20;99.90;;;;;;5034425;28;20552;-72
2022/09/19 08:03:00;;;;;;;6.70;1.67;;;14.40;99.90;;;;;;5035046;28;20433;-72
2022/09/19 08:05:31;;;;;;;4.37;1.47;;;14.50;99.90;;;;;;5034842;28;20922;-72
2022/09/19 08:07:57;;;;;;;7.30;2.70;;;14.70;99.90;;;;;;5035209;28;20416;-73
2022/09/19 08:10:23;;;;;;;1.93;0.80;;;14.70;99.90;;;;;;5035040;28;20468;-73
2022/09/19 08:12:48;;;;;;;3.03;1.57;;;14.80;99.90;;;;;;5034972;28;20453;-73
2022/09/19 08:15:16;;;;;;;5.73;1.43;;;14.90;99.90;;;;;;5034832;28;20183;-74
2022/09/19 08:17:43;;;;;;;7.87;1.60;;;14.90;99.90;;;;;;5034828;28;20210;-73
2022/09/19 08:20:09;;;;;;;2.03;1.33;;;15.00;99.90;;;;;;5034398;28;20489;-73
2022/09/19 08:22:34;;;;;;;5.10;1.30;;;15.10;99.90;;;;;;5035018;28;20501;-73
2022/09/19 08:25:00;;;;;;;3.63;1.13;;;15.40;99.90;;;;;;5034180;28;20192;-73
2022/09/19 08:27:26;;;;;;;2.33;1.30;;;15.40;99.90;;;;;;5035112;28;20171;-72
2022/09/19 08:29:52;;;;;;;8.80;1.70;;;15.50;99.90;;;;;;5034706;28;20939;-73
2022/09/19 08:32:17;;;;;;;4.37;1.47;;;15.70;99.90;;;;;;5034367;28;20321;-73
2022/09/19 08:34:43;;;;;;;1.90;1.40;;;16.10;99.90;;;;;;5033940;28;20175;-73
2022/09/19 08:37:08;;;;;;;1.97;1.10;;;16.30;99.90;;;;;;5034256;28;20221;-73
2022/09/19 08:39:34;;;;;;;3.83;0.97;;;16.40;99.90;;;;;;5034164;28;20206;-73
2022/09/19 08:42:21;;;;;;;6.90;1.97;;;16.40;99.90;;;;;;5032953;28;20172;-73
2022/09/19 08:45:24;;;;;;;4.27;1.47;;;16.30;99.90;;;;;;5033983;28;20251;-73
2022/09/19 08:47:50;;;;;;;4.60;1.37;;;16.40;99.90;;;;;;5033474;28;20505;-73
2022/09/19 08:50:23;;;;;;;4.83;2.27;;;17.60;99.90;;;;;;5033985;28;20406;-74
2022/09/19 08:52:55;;;;;;;2.70;1.27;;;19.30;99.90;;;;;;5033708;28;20804;-74
2022/09/19 08:55:24;;;;;;;5.83;1.60;;;20.80;99.90;;;;;;5033730;28;20960;-74
2022/09/19 08:57:57;;;;;;;3.03;1.10;;;22.20;99.90;;;;;;5033819;28;20395;-74
2022/09/19 09:00:24;;;;;;;5.13;1.50;;;22.30;99.90;;;;;;5033798;28;20431;-74
2022/09/19 09:02:59;;;;;;;6.80;1.33;;;22.00;99.90;;;;;;5033577;28;20819;-74
2022/09/19 09:05:45;;;;;;;2.60;1.17;;;21.90;99.90;;;;;;5033516;28;20426;-73
2022/09/19 09:08:13;;;;;;;3.17;1.07;;;21.60;99.90;;;;;;5033525;28;20806;-74
2022/09/19 09:10:56;;;;;;;5.37;1.30;;;21.20;99.90;;;;;;5033537;28;20410;-73
2022/09/19 09:13:38;;;;;;;14.00;1.87;;;21.20;99.90;;;;;;5033559;28;20976;-73
2022/09/19 09:16:14;;;;;;;5.93;1.20;;;21.10;99.90;;;;;;5032942;28;20427;-73
2022/09/19 09:18:39;;;;;;;4.03;1.33;;;21.00;99.90;;;;;;5033376;28;20398;-73
2022/09/19 09:21:37;;;;;;;7.00;1.33;;;21.20;99.90;;;;;;5033482;28;20459;-73
2022/09/19 09:24:10;;;;;;;4.90;1.07;;;21.50;99.90;;;;;;5033228;28;20172;-73
2022/09/19 09:26:40;;;;;;;9.03;1.57;;;22.10;99.90;;;;;;5033095;28;20868;-73
2022/09/19 09:29:27;;;;;;;4.50;1.97;;;22.80;99.90;;;;;;5033043;28;20413;-73
2022/09/19 09:32:00;;;;;;;7.00;1.27;;;22.90;99.90;;;;;;5033027;28;20492;-73
2022/09/19 09:34:43;;;;;;;4.77;1.43;;;22.90;99.90;;;;;;5032577;28;20486;-73
2022/09/19 09:37:40;;;;;;;7.53;1.97;;;22.50;99.90;;;;;;5032964;28;20498;-74
2022/09/19 09:40:12;;;;;;;2.10;1.37;;;22.20;99.90;;;;;;5032531;28;20418;-75
2022/09/19 09:43:02;;;;;;;6.00;1.67;;;22.40;99.90;;;;;;5032902;28;20496;-74
2022/09/19 09:45:48;;;;;;;5.70;1.83;;;22.90;99.90;;;;;;5032665;28;20429;-74
2022/09/19 09:48:34;;;;;;;3.73;1.50;;;23.40;99.90;;;;;;5032903;28;20524;-74
2022/09/19 09:51:39;;;;;;;3.33;1.50;;;24.60;99.90;;;;;;5032756;28;20752;-75
2022/09/19 09:57:58;;;;;;;3.90;2.40;;;26.20;86.10;;;;;;5033161;28;20924;-74
2022/09/19 10:03:34;;;;;;;5.70;1.30;;;27.10;75.10;;;;;;5032491;28;20541;-74
2022/09/19 10:06:04;;;;;;;9.67;1.30;;;26.80;68.30;;;;;;5030963;28;20487;-75
2022/09/19 10:08:44;;;;;;;2.57;1.43;;;26.10;68.10;;;;;;5031279;28;20410;-74
2022/09/19 10:11:17;;;;;;;6.20;1.27;;;26.00;70.80;;;;;;5032635;28;20439;-74
2022/09/19 10:13:48;;;;;;;7.30;1.80;;;25.50;70.10;;;;;;5032540;28;20785;-74
2022/09/19 10:16:17;;;;;;;2.23;1.20;;;25.50;72.20;;;;;;5032256;28;20797;-74
2022/09/19 10:18:59;;;;;;;6.90;1.77;;;26.00;72.40;;;;;;5031086;28;20418;-75
2022/09/19 10:21:25;;;;;;;2.70;1.37;;;26.70;69.60;;;;;;5032334;28;20390;-75
2022/09/19 10:23:50;;;;;;;5.90;1.33;;;28.10;67.10;;;;;;5032287;28;20508;-73
2022/09/19 10:26:22;;;;;;;7.90;1.90;;;29.90;63.10;;;;;;5031942;28;20192;-73
2022/09/19 10:28:59;;;;;;;3.67;1.53;;;31.40;56.80;;;;;;5032346;28;20159;-74
2022/09/19 10:31:34;;;;;;;3.40;1.63;;;32.80;52.10;;;;;;5031138;28;20421;-74
2022/09/19 10:34:04;;;;;;;2.10;1.43;;;33.40;49.00;;;;;;5032120;28;20417;-74
2022/09/19 10:36:34;;;;;;;4.13;1.67;;;33.60;48.30;;;;;;5032103;28;20445;-75
2022/09/19 10:39:13;;;;;;;3.90;2.10;;;34.60;47.00;;;;;;5030664;28;20413;-75
2022/09/19 10:41:42;;;;;;;6.20;1.70;;;36.10;45.90;;;;;;5030632;28;20422;-74
2022/09/19 10:44:18;;;;;;;1.50;1.40;;;36.90;43.10;;;;;;5032073;28;20418;-74
2022/09/19 10:46:49;;;;;;;2.43;1.53;;;36.00;40.70;;;;;;5031718;28;20422;-74
2022/09/19 10:49:25;;;;;;;3.80;1.40;;;35.20;41.90;;;;;;5031788;28;20410;-74
2022/09/19 10:51:52;;;;;;;4.57;1.50;;;34.60;41.70;;;;;;5031957;28;21140;-74
2022/09/19 10:54:36;;;;;;;8.90;2.20;;;32.80;42.50;;;;;;5031643;28;20410;-74
2022/09/19 10:57:03;;;;;;;4.53;2.30;;;30.90;44.90;;;;;;5031834;28;20812;-74
2022/09/19 10:59:36;;;;;;;3.30;1.80;;;29.50;46.80;;;;;;5030449;28;20418;-74
2022/09/19 11:02:24;;;;;;;2.60;1.57;;;29.10;48.60;;;;;;5030281;28;20434;-74
2022/09/19 11:05:03;;;;;;;6.53;1.57;;;30.00;49.20;;;;;;5030870;28;20484;-74
2022/09/19 11:07:48;;;;;;;1.40;1.00;;;32.00;48.50;;;;;;5031679;28;20414;-75
2022/09/19 11:10:44;;;;;;;2.80;1.10;;;33.10;44.50;;;;;;5031723;28;20402;-75
2022/09/19 11:13:12;;;;;;;7.70;2.30;;;34.60;43.50;;;;;;5031267;28;20989;-74
2022/09/19 11:15:55;;;;;;;5.20;2.50;;;35.70;41.60;;;;;;5030125;28;20517;-75
2022/09/19 11:18:45;;;;;;;2.37;1.60;;;36.90;40.60;;;;;;5031581;28;20402;-75
2022/09/19 11:21:41;;;;;;;7.90;1.47;;;37.60;38.80;;;;;;5031584;28;20451;-75
2022/09/19 11:24:40;;;;;;;2.07;1.43;;;38.00;37.20;;;;;;5031553;28;20479;-75
2022/09/19 11:27:18;;;;;;;5.93;1.60;;;38.60;37.20;;;;;;5031385;28;20474;-74
2022/09/19 11:30:02;;;;;;;1.77;1.47;;;39.20;35.50;;;;;;5031289;28;20385;-73
2022/09/19 11:32:47;;;;;;;2.30;1.43;;;39.40;35.30;;;;;;5031352;28;20454;-73
2022/09/19 11:35:27;;;;;;;2.43;1.17;;;39.80;34.90;;;;;;5031118;28;20924;-72
2022/09/19 11:38:20;;;;;;;2.03;1.47;;;40.10;34.50;;;;;;5031399;28;20485;-74
2022/09/19 11:41:07;;;;;;;3.73;1.77;;;40.40;34.30;;;;;;5030120;28;20396;-74
2022/09/19 11:43:52;;;;;;;2.23;1.50;;;41.00;33.90;;;;;;5031488;28;20373;-74
2022/09/19 11:47:02;;;;;;;3.23;1.33;;;41.30;32.80;;;;;;5031101;28;20983;-74
2022/09/19 11:50:04;;;;;;;2.70;1.70;;;41.60;32.60;;;;;;5031327;28;20767;-74
2022/09/19 11:52:58;;;;;;;2.87;1.50;;;41.00;31.40;;;;;;5031415;28;20776;-72
2022/09/19 11:55:38;;;;;;;3.97;1.50;;;40.80;31.80;;;;;;5029941;28;20434;-73
2022/09/19 11:58:26;;;;;;;3.23;1.37;;;41.50;32.60;;;;;;5031125;28;20399;-73
2022/09/19 12:01:17;;;;;;;3.97;1.30;;;41.40;31.40;;;;;;5031052;28;20381;-73
2022/09/19 12:04:11;;;;;;;3.77;1.40;;;41.40;31.20;;;;;;5030034;28;20435;-74
2022/09/19 12:06:54;;;;;;;3.47;1.60;;;41.60;31.30;;;;;;5031015;28;20812;-73
2022/09/19 12:09:36;;;;;;;2.17;1.30;;;41.40;30.70;;;;;;5031069;28;20871;-73
2022/09/19 12:12:09;;;;;;;2.87;1.60;;;41.40;30.10;;;;;;5030116;28;20802;-73
2022/09/19 12:14:41;;;;;;;3.30;1.47;;;41.80;30.80;;;;;;5030877;28;20379;-73
2022/09/19 12:17:16;;;;;;;3.70;1.70;;;42.10;30.40;;;;;;5033380;28;20770;-75
2022/09/19 12:19:47;;;;;;;2.70;1.37;;;41.00;29.90;;;;;;5034739;28;20877;-74
2022/09/19 12:22:20;;;;;;;2.97;1.40;;;40.20;30.80;;;;;;5034414;28;20485;-74
2022/09/19 12:24:59;;;;;;;3.20;1.33;;;39.10;30.10;;;;;;5034142;28;20416;-74
2022/09/19 12:27:31;;;;;;;2.27;1.33;;;37.90;30.80;;;;;;5034555;28;20384;-74
2022/09/19 12:30:18;;;;;;;7.43;1.60;;;37.10;32.20;;;;;;5034234;28;20951;-73
2022/09/19 12:33:02;;;;;;;3.47;1.10;;;36.40;32.90;;;;;;5034286;28;20537;-73
2022/09/19 12:35:55;;;;;;;2.80;1.20;;;36.60;34.60;;;;;;5032276;28;20528;-73
2022/09/19 12:38:53;;;;;;;2.73;1.43;;;36.60;34.30;;;;;;5034210;28;20750;-73
2022/09/19 12:41:40;;;;;;;2.30;1.43;;;34.70;33.90;;;;;;5034081;28;20406;-73
2022/09/19 12:44:19;;;;;;;1.30;0.97;;;32.50;35.50;;;;;;5032952;28;20801;-74
2022/09/19 12:47:04;;;;;;;2.80;1.00;;;30.10;38.60;;;;;;5034491;28;20516;-74
2022/09/19 12:50:15;;;;;;;8.77;1.00;;;27.70;41.60;;;;;;5034261;28;20410;-74
2022/09/19 12:52:47;;;;;;;1.70;1.20;;;25.90;45.30;;;;;;5032768;28;20458;-74
2022/09/19 12:55:16;;;;;;;1.40;1.13;;;24.20;48.90;;;;;;5033711;28;20426;-74
2022/09/19 12:57:51;;;;;;;2.87;1.00;;;23.10;51.60;;;;;;5032708;28;20414;-73
2022/09/19 13:00:18;;;;;;;2.67;0.87;;;22.20;55.70;;;;;;5049364;28;20918;-73
2022/09/19 13:03:00;;;;;;;1.20;0.70;;;21.30;64.90;;;;;;5033885;28;20434;-73
2022/09/19 13:05:36;;;;;;;3.03;0.90;;;20.60;87.20;;;;;;5033714;28;20488;-73
2022/09/19 13:08:14;;;;;;;4.53;1.67;;;20.30;99.90;;;;;;5033713;28;20800;-73
2022/09/19 13:11:20;;;;;;;2.03;0.90;;;19.90;99.90;;;;;;5033547;28;20389;-74
2022/09/19 13:13:52;;;;;;;2.10;0.80;;;19.50;99.90;;;;;;5032911;28;20469;-74
2022/09/19 13:16:24;;;;;;;3.10;1.27;;;19.30;99.90;;;;;;5032598;28;20488;-76
2022/09/19 13:24:44;;;;;;;2.10;1.03;;;18.50;99.90;;;;;;5033995;28;20476;-74
2022/09/19 13:27:14;;;;;;;2.37;0.80;;;18.50;99.90;;;;;;5032548;28;20437;-74
2022/09/19 13:29:43;;;;;;;2.33;1.30;;;18.60;99.90;;;;;;5033659;28;20552;-74
2022/09/19 13:32:34;;;;;;;2.27;1.00;;;18.50;99.90;;;;;;5033643;28;20950;-75
2022/09/19 13:35:14;;;;;;;4.77;1.00;;;18.20;99.90;;;;;;5033332;28;20803;-74
2022/09/19 13:37:43;;;;;;;2.87;1.00;;;17.90;99.90;;;;;;5033512;28;20394;-74
2022/09/19 13:40:14;;;;;;;2.00;0.97;;;17.80;99.90;;;;;;5033617;28;20754;-74